Time;durP1;ratioP1;P1;durP2;ratioP2;P2;SDS_P1;SDS_P2;PMS_P1;PMS_P2;Temp;Humidity;BMP_temperature;BMP_pressure;BME280_temperature;BME280_humidity;BME280_pressure;Samples;Min_cycle;Max_cycle;Signal;HPM_P1;HPM_P2
2021/10/29 00:01:03;;;;;;;2.10;1.50;;;;;;;25.51;35.56;96478.41;5027417;28;20029;-66
2021/10/29 00:03:28;;;;;;;1.90;1.42;;;;;;;25.52;35.55;96482.72;5030557;28;20080;-64
2021/10/29 00:05:53;;;;;;;1.73;1.15;;;;;;;25.51;35.55;96478.41;5031336;28;20039;-63
2021/10/29 00:08:19;;;;;;;2.53;1.40;;;;;;;25.51;35.63;96480.19;5030920;28;20542;-65
2021/10/29 00:10:44;;;;;;;1.83;1.20;;;;;;;25.50;35.43;96476.72;5032475;28;20029;-64
2021/10/29 00:13:10;;;;;;;2.42;1.20;;;;;;;25.51;35.34;96472.31;5012652;28;20083;-65
2021/10/29 00:15:35;;;;;;;2.00;1.40;;;;;;;25.49;35.38;96475.03;5012576;28;20041;-63
2021/10/29 00:18:01;;;;;;;1.63;1.30;;;;;;;25.50;35.41;96465.38;5030895;28;20029;-64
2021/10/29 00:20:27;;;;;;;2.67;1.38;;;;;;;25.49;35.47;96459.28;5011901;28;20037;-62
2021/10/29 00:22:52;;;;;;;2.85;1.17;;;;;;;25.50;35.39;96460.97;5028752;28;20108;-64
2021/10/29 00:25:18;;;;;;;1.50;1.25;;;;;;;25.50;35.51;96463.59;5025073;28;20037;-65
2021/10/29 00:27:43;;;;;;;1.48;1.27;;;;;;;25.48;35.54;96457.59;5023864;28;20270;-64
2021/10/29 00:30:10;;;;;;;1.58;1.10;;;;;;;25.50;35.34;96463.59;5024040;28;20033;-65
2021/10/29 00:32:35;;;;;;;1.42;1.30;;;;;;;25.50;35.31;96460.13;5014770;28;20112;-66
2021/10/29 00:35:00;;;;;;;2.25;1.30;;;;;;;25.51;35.40;96461.84;5027584;28;20610;-64
2021/10/29 00:37:26;;;;;;;2.10;1.30;;;;;;;25.50;35.41;96460.97;5028286;28;20083;-65
2021/10/29 00:39:51;;;;;;;2.13;1.30;;;;;;;25.49;35.55;96459.28;5030777;28;20578;-65
2021/10/29 00:42:17;;;;;;;2.22;1.45;;;;;;;25.50;35.23;96460.13;5011432;28;20551;-64
2021/10/29 00:44:42;;;;;;;1.27;0.90;;;;;;;25.49;35.53;96461.91;5025264;28;20096;-65
2021/10/29 00:47:08;;;;;;;2.63;1.20;;;;;;;25.49;35.49;96459.28;5025943;28;20028;-65
2021/10/29 00:49:33;;;;;;;1.85;1.10;;;;;;;25.48;35.42;96456.75;5029092;28;20088;-65
2021/10/29 00:51:59;;;;;;;1.65;1.20;;;;;;;25.48;35.31;96452.34;5028002;28;20036;-66
2021/10/29 00:54:24;;;;;;;2.20;1.20;;;;;;;25.49;35.53;96459.28;5009616;28;20527;-62
2021/10/29 00:56:50;;;;;;;1.42;1.15;;;;;;;25.48;35.44;96452.34;5022207;28;20431;-64
2021/10/29 00:59:17;;;;;;;2.05;1.00;;;;;;;25.48;35.52;96452.34;5011249;28;20388;-66
2021/10/29 01:01:43;;;;;;;2.03;1.25;;;;;;;25.49;35.43;96454.03;5026197;28;20032;-63
2021/10/29 01:04:08;;;;;;;0.80;0.77;;;;;;;25.49;35.33;96453.19;5028891;28;20029;-64
2021/10/29 01:06:34;;;;;;;1.33;1.10;;;;;;;25.49;35.36;96451.41;5025238;28;20102;-65
2021/10/29 01:08:59;;;;;;;2.30;1.08;;;;;;;25.49;35.43;96458.44;5012112;28;20029;-65
2021/10/29 01:11:26;;;;;;;2.15;1.13;;;;;;;25.50;35.43;96457.50;5028685;28;20104;-64
2021/10/29 01:13:51;;;;;;;1.52;1.20;;;;;;;25.48;35.33;96451.50;5009551;28;20124;-64
2021/10/29 01:16:17;;;;;;;1.40;1.10;;;;;;;25.48;35.22;96451.50;5016095;28;20272;-64
2021/10/29 01:18:42;;;;;;;1.88;1.45;;;;;;;25.48;35.26;96446.25;5022578;28;20040;-66
2021/10/29 01:21:08;;;;;;;1.63;1.23;;;;;;;25.47;35.39;96450.66;5010412;28;20037;-65
2021/10/29 01:23:34;;;;;;;2.70;1.15;;;;;;;25.47;35.37;96445.41;5025828;28;20029;-64
2021/10/29 01:26:07;;;;;;;1.48;0.95;;;;;;;25.47;35.43;96445.41;5031336;28;20118;-63
2021/10/29 01:28:33;;;;;;;1.58;1.17;;;;;;;25.47;35.38;96450.66;5011118;28;20025;-64
2021/10/29 01:30:58;;;;;;;1.00;0.93;;;;;;;25.47;35.26;96453.28;5010831;28;20076;-65
2021/10/29 01:33:24;;;;;;;2.00;0.93;;;;;;;25.46;35.49;96448.97;5008565;28;20535;-64
2021/10/29 01:35:49;;;;;;;1.17;0.93;;;;;;;25.45;35.42;96450.72;5028798;28;20033;-65
2021/10/29 01:38:15;;;;;;;2.03;0.90;;;;;;;25.46;35.27;96448.97;5027472;28;20854;-65
2021/10/29 01:40:40;;;;;;;1.05;0.90;;;;;;;25.46;35.38;96448.97;5026356;28;20026;-66
2021/10/29 01:43:06;;;;;;;0.80;0.77;;;;;;;25.46;35.38;96448.97;5013216;28;20613;-63
2021/10/29 01:45:32;;;;;;;2.45;1.88;;;;;;;25.46;35.24;96446.34;5009496;28;21059;-65
2021/10/29 01:47:58;;;;;;;4.20;1.80;;;;;;;25.45;35.12;96442.88;5025213;28;20116;-64
2021/10/29 01:50:23;;;;;;;3.20;1.40;;;;;;;25.45;35.25;96436.78;5027011;28;20032;-63
2021/10/29 01:52:49;;;;;;;1.58;1.33;;;;;;;25.45;35.17;96431.53;5030902;28;20415;-63
2021/10/29 01:55:14;;;;;;;1.55;1.30;;;;;;;25.44;35.12;96435.09;5035879;28;20021;-63
2021/10/29 01:57:40;;;;;;;1.40;1.10;;;;;;;25.44;35.22;96440.34;5034063;28;20039;-63
2021/10/29 02:00:06;;;;;;;3.65;1.92;;;;;;;25.44;35.04;96440.34;5034323;28;20553;-63
2021/10/29 02:02:31;;;;;;;2.92;1.50;;;;;;;25.43;35.13;96434.25;5016782;28;20045;-63
2021/10/29 02:04:57;;;;;;;1.30;1.20;;;;;;;25.42;35.28;96429.94;5012678;28;20305;-64
2021/10/29 02:07:22;;;;;;;1.33;1.23;;;;;;;25.43;35.34;96433.38;5030424;28;20029;-64
2021/10/29 02:09:48;;;;;;;3.22;1.17;;;;;;;25.42;35.24;96429.94;5032994;28;20036;-63
2021/10/29 02:12:13;;;;;;;1.33;1.17;;;;;;;25.42;35.23;96421.22;5016078;28;20403;-64
2021/10/29 02:14:38;;;;;;;2.20;1.40;;;;;;;25.42;35.18;96415.97;5030114;28;20035;-64
2021/10/29 02:17:04;;;;;;;2.00;1.20;;;;;;;25.42;35.29;96421.22;5029813;28;20025;-63
2021/10/29 02:19:29;;;;;;;1.30;1.20;;;;;;;25.41;35.35;96420.38;5028126;28;20036;-63
2021/10/29 02:21:55;;;;;;;1.67;1.10;;;;;;;25.41;35.14;96417.75;5031180;28;20450;-64
2021/10/29 02:24:20;;;;;;;1.30;1.08;;;;;;;25.41;35.30;96416.91;5016188;28;20021;-64
2021/10/29 02:26:46;;;;;;;1.92;1.00;;;;;;;25.41;35.44;96411.66;5024498;28;20350;-64
2021/10/29 02:29:11;;;;;;;1.92;1.15;;;;;;;25.40;35.22;96416.06;5010215;28;20470;-65
2021/10/29 02:31:39;;;;;;;2.05;1.20;;;;;;;25.41;35.22;96414.28;5026702;28;20033;-64
2021/10/29 02:34:05;;;;;;;1.50;1.20;;;;;;;25.40;35.18;96412.59;5026965;28;20032;-63
2021/10/29 02:36:30;;;;;;;2.65;1.40;;;;;;;25.40;35.16;96412.59;5026958;28;20036;-64
2021/10/29 02:38:56;;;;;;;2.67;1.45;;;;;;;25.40;35.26;96417.84;5030189;28;20614;-65
2021/10/29 02:41:21;;;;;;;2.30;1.30;;;;;;;25.40;35.11;96423.09;5026955;28;20036;-64
2021/10/29 02:43:47;;;;;;;2.35;1.15;;;;;;;25.40;35.17;96418.69;5024156;28;20041;-65
2021/10/29 02:46:12;;;;;;;1.75;1.08;;;;;;;25.39;35.28;96416.13;5027127;28;20115;-64
2021/10/29 02:48:37;;;;;;;1.88;1.35;;;;;;;25.39;35.14;96410.88;5026242;28;20043;-64
2021/10/29 02:51:03;;;;;;;5.22;1.52;;;;;;;25.38;35.07;96412.69;5010394;28;20024;-63
2021/10/29 02:53:30;;;;;;;2.15;1.33;;;;;;;25.39;35.13;96418.75;5026147;28;20036;-65
2021/10/29 02:55:56;;;;;;;1.77;1.58;;;;;;;25.38;35.19;96414.44;5026283;28;20031;-64
2021/10/29 02:58:21;;;;;;;2.67;1.30;;;;;;;25.39;35.07;96421.38;5025302;28;20955;-64
2021/10/29 03:00:47;;;;;;;2.10;1.52;;;;;;;25.38;35.29;96419.69;5026526;28;20037;-62
2021/10/29 03:03:12;;;;;;;1.80;1.27;;;;;;;25.38;35.20;96424.94;5024701;28;20022;-64
2021/10/29 03:05:39;;;;;;;1.80;1.25;;;;;;;25.38;34.97;96419.69;5005869;28;20041;-66
2021/10/29 03:08:05;;;;;;;2.47;1.20;;;;;;;25.38;34.97;96419.69;5024402;28;20136;-64
2021/10/29 03:10:30;;;;;;;4.22;1.60;;;;;;;25.37;35.21;96420.63;5007285;28;20025;-66
2021/10/29 03:12:55;;;;;;;1.60;1.30;;;;;;;25.37;35.09;96418.00;5023633;28;20514;-64
2021/10/29 03:15:21;;;;;;;4.53;1.50;;;;;;;25.37;35.13;96412.78;5021520;28;20029;-64
2021/10/29 03:17:46;;;;;;;3.17;1.50;;;;;;;25.37;35.17;96412.78;5021710;28;20102;-65
2021/10/29 03:20:12;;;;;;;2.00;1.50;;;;;;;25.36;35.05;96400.59;5026398;28;20021;-64
2021/10/29 03:22:38;;;;;;;1.58;1.35;;;;;;;25.37;35.01;96407.53;5022457;28;20102;-65
2021/10/29 03:25:05;;;;;;;3.08;1.30;;;;;;;25.36;34.97;96405.84;5023717;28;20116;-64
2021/10/29 03:27:30;;;;;;;2.25;1.25;;;;;;;25.35;35.13;96401.53;5011855;28;20637;-65
2021/10/29 03:29:57;;;;;;;1.75;1.30;;;;;;;25.35;35.20;96398.91;5026002;28;20029;-65
2021/10/29 03:32:23;;;;;;;1.55;1.13;;;;;;;25.35;35.18;96397.13;5021771;28;20396;-64
2021/10/29 03:34:48;;;;;;;1.70;1.15;;;;;;;25.35;35.14;96393.66;5022335;28;20406;-65
2021/10/29 03:40:13;;;;;;;1.70;1.17;;;;;;;25.34;35.08;96398.06;4993072;28;20037;-67
2021/10/29 03:42:46;;;;;;;2.08;1.30;;;;;;;25.35;35.01;96404.16;5023725;28;20029;-67
2021/10/29 03:45:14;;;;;;;3.78;1.38;;;;;;;25.34;35.03;96398.06;5025193;28;20104;-65
2021/10/29 03:47:50;;;;;;;1.95;1.38;;;;;;;25.34;35.07;96407.69;5027742;28;20029;-64
2021/10/29 03:50:22;;;;;;;2.45;1.40;;;;;;;25.34;34.93;96398.06;5028453;28;20483;-64
2021/10/29 03:52:55;;;;;;;2.97;1.38;;;;;;;25.34;35.09;96397.19;5027038;28;20045;-66
2021/10/29 03:55:20;;;;;;;2.13;1.38;;;;;;;25.33;35.00;96400.75;5029883;28;20128;-62
2021/10/29 03:57:46;;;;;;;1.63;1.25;;;;;;;25.34;34.98;96403.31;5030496;28;20467;-64
2021/10/29 04:00:11;;;;;;;2.67;1.20;;;;;;;25.31;35.01;96399.09;5028474;28;20037;-64
2021/10/29 04:02:37;;;;;;;2.00;1.33;;;;;;;25.33;35.06;96406.00;5030271;28;20037;-63
2021/10/29 04:05:02;;;;;;;3.22;1.50;;;;;;;25.31;35.02;96399.09;5030062;28;20515;-63
2021/10/29 04:07:28;;;;;;;2.08;1.38;;;;;;;25.31;35.02;96406.94;5026671;28;20552;-63
2021/10/29 04:09:53;;;;;;;2.60;1.25;;;;;;;25.31;35.03;96404.31;5012411;28;20025;-63
2021/10/29 04:12:18;;;;;;;3.80;1.50;;;;;;;25.31;35.05;96392.97;5034196;28;20623;-63
2021/10/29 04:14:45;;;;;;;4.85;1.45;;;;;;;25.31;35.06;96404.31;5032127;28;20090;-63
2021/10/29 04:17:10;;;;;;;2.90;1.40;;;;;;;25.31;35.02;96401.69;5032196;28;20028;-66
2021/10/29 04:19:35;;;;;;;2.35;1.40;;;;;;;25.33;34.99;96408.63;5033938;28;20119;-64
2021/10/29 04:22:01;;;;;;;2.45;1.45;;;;;;;25.30;35.03;96405.25;5018554;28;20036;-64
2021/10/29 04:24:27;;;;;;;2.20;1.33;;;;;;;25.30;34.91;96405.25;5034135;28;20029;-66
2021/10/29 04:26:53;;;;;;;2.08;1.38;;;;;;;25.30;34.99;96417.53;5013775;28;20025;-64
2021/10/29 04:29:25;;;;;;;1.58;1.25;;;;;;;25.30;34.91;96409.66;5031366;28;20447;-67
2021/10/29 04:31:50;;;;;;;1.73;1.30;;;;;;;25.29;35.08;96411.41;5026261;28;20132;-64
2021/10/29 04:34:20;;;;;;;1.70;1.50;;;;;;;25.29;34.96;96403.56;5027432;28;20041;-65
2021/10/29 04:36:46;;;;;;;4.22;1.10;;;;;;;25.29;35.11;96400.94;5014171;28;20042;-65
2021/10/29 04:39:14;;;;;;;3.20;1.30;;;;;;;25.29;35.39;96400.94;5027970;28;20029;-62
2021/10/29 04:41:44;;;;;;;2.10;1.30;;;;;;;25.29;34.99;96400.94;5026562;28;20037;-66
2021/10/29 04:44:10;;;;;;;6.07;2.28;;;;;;;25.28;34.70;96394.00;5028634;28;20052;-63
2021/10/29 04:46:35;;;;;;;4.70;2.00;;;;;;;25.27;34.62;96387.06;5029256;28;20510;-65
2021/10/29 04:49:01;;;;;;;1.95;1.35;;;;;;;25.26;34.81;96388.00;5027844;28;20029;-64
2021/10/29 04:51:27;;;;;;;1.52;1.20;;;;;;;25.26;34.84;96380.16;4990638;28;20029;-65
2021/10/29 04:53:53;;;;;;;3.00;1.40;;;;;;;25.26;34.80;96380.16;5007986;28;20029;-64
2021/10/29 04:56:18;;;;;;;1.63;1.27;;;;;;;25.25;34.94;96378.44;5028536;28;20075;-63
2021/10/29 04:58:44;;;;;;;2.95;1.27;;;;;;;25.24;35.06;96371.50;5027977;28;20032;-63
2021/10/29 05:01:09;;;;;;;3.90;1.30;;;;;;;25.24;34.88;96376.75;5028626;28;20586;-65
2021/10/29 05:03:35;;;;;;;3.58;1.30;;;;;;;25.24;34.87;96371.50;5008537;28;20032;-63
2021/10/29 05:06:00;;;;;;;5.32;1.42;;;;;;;25.25;35.02;96367.13;5025662;28;20494;-63
2021/10/29 05:08:26;;;;;;;1.67;1.50;;;;;;;25.25;34.78;96374.97;5018668;28;20040;-64
2021/10/29 05:10:51;;;;;;;1.45;1.20;;;;;;;25.24;34.89;96374.13;5032897;28;20033;-63
2021/10/29 05:13:17;;;;;;;1.95;1.30;;;;;;;25.25;34.96;96367.13;5028851;28;20031;-63
2021/10/29 05:15:42;;;;;;;1.38;1.23;;;;;;;25.25;34.84;96373.19;5031957;28;20025;-63
2021/10/29 05:18:13;;;;;;;2.53;1.35;;;;;;;25.24;34.82;96371.50;5028159;28;20384;-65
2021/10/29 05:20:38;;;;;;;3.38;1.60;;;;;;;25.24;35.10;96371.50;5026856;28;20338;-65
2021/10/29 05:23:04;;;;;;;2.35;1.30;;;;;;;25.24;34.85;96371.50;5029627;28;20064;-62
2021/10/29 05:25:29;;;;;;;1.48;1.15;;;;;;;25.25;34.90;96369.75;5010876;28;20485;-65
2021/10/29 05:27:55;;;;;;;1.83;1.35;;;;;;;25.23;35.05;96354.09;5028798;28;20024;-65
2021/10/29 05:30:20;;;;;;;4.55;1.35;;;;;;;25.24;34.93;96360.19;5027396;28;20033;-67
2021/10/29 05:32:46;;;;;;;2.08;1.08;;;;;;;25.23;35.04;96361.97;5024822;28;20032;-64
2021/10/29 05:35:11;;;;;;;1.65;1.30;;;;;;;25.23;34.86;96361.97;5027437;28;20538;-65
2021/10/29 05:37:37;;;;;;;3.17;1.42;;;;;;;25.23;34.97;96356.72;5025469;28;20138;-65
2021/10/29 05:40:04;;;;;;;2.63;1.30;;;;;;;25.23;35.12;96351.47;5026919;28;20029;-65
2021/10/29 05:42:30;;;;;;;2.47;1.35;;;;;;;25.24;34.92;96349.69;5013471;28;20224;-66
2021/10/29 05:44:55;;;;;;;2.40;1.30;;;;;;;25.23;34.95;96351.47;5028060;28;20266;-65
2021/10/29 05:47:21;;;;;;;1.45;1.20;;;;;;;25.23;34.81;96354.09;5026126;28;20060;-66
2021/10/29 05:49:47;;;;;;;4.72;1.30;;;;;;;25.22;34.92;96352.41;5028238;28;20028;-65
2021/10/29 05:52:20;;;;;;;1.85;1.15;;;;;;;25.23;34.93;96348.84;5029799;28;20017;-64
2021/10/29 05:57:30;;;;;;;2.63;1.75;;;;;;;25.22;34.86;96349.78;5028696;28;20506;-65
2021/10/29 05:59:55;;;;;;;8.73;4.18;;;;;;;25.20;33.79;96345.56;5013600;28;20081;-66
2021/10/29 06:02:20;;;;;;;11.35;3.15;;;;;;;25.20;34.16;96358.69;5033614;28;20025;-65
2021/10/29 06:04:47;;;;;;;10.48;2.95;;;;;;;25.17;34.22;96349.22;5013725;28;20399;-64
2021/10/29 06:07:12;;;;;;;6.50;2.70;;;;;;;25.16;34.46;96356.22;5031370;28;20021;-63
2021/10/29 06:09:37;;;;;;;9.77;3.13;;;;;;;25.16;34.41;96352.75;5029787;28;20060;-67
2021/10/29 06:12:03;;;;;;;14.05;2.88;;;;;;;25.15;34.46;96351.06;5008446;28;20522;-66
2021/10/29 06:14:29;;;;;;;11.60;3.10;;;;;;;25.14;34.63;96346.75;5030064;28;20527;-64
2021/10/29 06:16:58;;;;;;;11.77;3.05;;;;;;;25.13;34.48;96355.56;5015989;28;20037;-64
2021/10/29 06:19:24;;;;;;;12.50;3.30;;;;;;;25.15;34.64;96361.56;5031463;28;20077;-64
2021/10/29 06:24:19;;;;;;;6.75;2.85;;;;;;;25.15;34.60;96359.78;5023018;28;20123;-65
2021/10/29 06:26:50;;;;;;;9.65;3.03;;;;;;;25.14;35.01;96355.44;5027537;28;20552;-63
2021/10/29 06:29:15;;;;;;;10.55;3.25;;;;;;;25.16;34.95;96361.47;5025430;28;20029;-65
2021/10/29 06:31:41;;;;;;;8.50;2.90;;;;;;;25.18;34.75;96356.13;5021571;28;20095;-63
2021/10/29 06:34:06;;;;;;;10.23;3.35;;;;;;;25.17;34.60;96354.47;5019633;28;20053;-64
2021/10/29 06:36:32;;;;;;;7.43;2.90;;;;;;;25.17;34.85;96352.66;5010628;28;20034;-65
2021/10/29 06:38:59;;;;;;;12.82;3.17;;;;;;;25.18;34.85;96346.47;5005694;28;20040;-65
2021/10/29 06:41:24;;;;;;;6.85;2.97;;;;;;;25.20;34.79;96358.69;5006260;28;20033;-66
2021/10/29 06:44:45;;;;;;;7.75;2.80;;;;;;;25.20;34.85;96362.13;5021721;28;20608;-65
2021/10/29 06:46:50;;;;;;;8.82;2.92;;;;;;;25.20;34.74;96351.63;5008562;28;20041;-62
2021/10/29 06:49:20;;;;;;;9.07;2.50;;;;;;;25.22;34.95;96355.03;5018495;28;20029;-65
2021/10/29 07:00:20;;;;;;;8.02;2.90;;;;;;;25.24;34.95;96363.63;5022160;28;20072;-66
2021/10/29 07:40:41;;;;;;;10.90;3.22;;;;;;;25.34;33.70;96370.97;5031226;28;20036;-63
2021/10/29 07:43:09;;;;;;;9.70;3.20;;;;;;;25.31;33.65;96359.75;5021421;28;20030;-65
2021/10/29 07:45:34;;;;;;;7.28;2.90;;;;;;;25.33;34.04;96361.41;5015860;28;20027;-64
2021/10/29 07:48:00;;;;;;;10.73;2.90;;;;;;;25.33;34.06;96357.03;5034753;28;20050;-64
2021/10/29 07:50:26;;;;;;;19.63;4.10;;;;;;;25.33;34.11;96357.03;5013707;28;20587;-64
2021/10/29 07:52:52;;;;;;;39.67;6.07;;;;;;;25.35;34.16;96367.44;5033054;28;20259;-66
2021/10/29 07:55:22;;;;;;;24.30;5.95;;;;;;;25.35;34.21;96362.19;5015345;28;20029;-64
2021/10/29 07:57:47;;;;;;;38.83;6.10;;;;;;;25.35;34.34;96375.31;5031331;28;20029;-63
2021/10/29 08:00:15;;;;;;;31.20;6.60;;;;;;;25.36;34.24;96375.19;5028174;28;20025;-66
2021/10/29 08:02:40;;;;;;;28.13;5.72;;;;;;;25.35;34.44;96373.50;5016257;28;20021;-64
2021/10/29 08:05:06;;;;;;;41.08;7.75;;;;;;;25.37;34.42;96376.06;5030490;28;20025;-65
2021/10/29 08:07:31;;;;;;;22.75;6.57;;;;;;;25.36;34.37;96374.38;5031610;28;20033;-64
2021/10/29 08:10:00;;;;;;;30.10;6.53;;;;;;;25.36;34.46;96372.56;5028079;28;20033;-64
2021/10/29 08:12:25;;;;;;;33.80;6.50;;;;;;;25.37;34.37;96370.81;5009770;28;20072;-65
2021/10/29 08:14:51;;;;;;;26.88;5.93;;;;;;;25.38;34.33;96375.09;5030839;28;20037;-63
2021/10/29 08:17:17;;;;;;;25.55;5.70;;;;;;;25.39;34.25;96368.91;5030677;28;20061;-64
2021/10/29 08:19:44;;;;;;;31.48;6.18;;;;;;;25.39;34.30;96374.16;5012673;28;20053;-63
2021/10/29 08:22:09;;;;;;;27.60;5.72;;;;;;;25.39;34.26;96372.41;5005851;28;20032;-64
2021/10/29 08:24:35;;;;;;;20.35;5.32;;;;;;;25.40;34.27;96373.25;5034536;28;20478;-64
2021/10/29 08:27:01;;;;;;;19.52;5.13;;;;;;;25.40;34.54;96371.47;5032315;28;20025;-65
2021/10/29 08:29:27;;;;;;;20.42;5.20;;;;;;;25.41;34.56;96367.94;5013978;28;20515;-65
2021/10/29 08:31:52;;;;;;;25.50;6.65;;;;;;;25.42;34.58;96363.50;4989440;28;20048;-66
2021/10/29 08:34:20;;;;;;;24.08;5.85;;;;;;;25.44;34.53;96362.47;5033615;28;20423;-64
2021/10/29 08:36:45;;;;;;;19.42;6.05;;;;;;;25.45;34.60;96363.34;5030930;28;20033;-65
2021/10/29 08:39:13;;;;;;;18.95;5.00;;;;;;;25.47;34.49;96369.31;5031489;28;20071;-66
2021/10/29 08:41:39;;;;;;;16.10;4.80;;;;;;;25.49;34.52;96369.25;5032571;28;20486;-65
2021/10/29 08:44:06;;;;;;;14.52;4.13;;;;;;;25.50;34.73;96377.03;5031966;28;20411;-66
2021/10/29 08:46:32;;;;;;;13.52;4.40;;;;;;;25.51;34.76;96373.47;5030527;28;20025;-65
2021/10/29 08:48:58;;;;;;;15.43;4.18;;;;;;;25.54;34.82;96372.44;5013351;28;20029;-66
2021/10/29 08:51:24;;;;;;;13.82;4.40;;;;;;;25.55;34.74;96372.34;5031096;28;20035;-66
2021/10/29 08:53:50;;;;;;;14.82;4.25;;;;;;;25.55;34.88;96364.47;5029098;28;20111;-64
2021/10/29 08:56:16;;;;;;;14.90;4.20;;;;;;;25.56;34.79;96366.19;5016037;28;20655;-65
2021/10/29 08:59:09;;;;;;;10.80;4.25;;;;;;;25.60;34.85;96355.53;5034623;28;20040;-65
2021/10/29 09:07:17;;;;;;;8.93;3.80;;;;;;;25.62;34.95;96344.00;5035735;28;20032;-64
2021/10/29 09:33:58;;;;;;;7.32;2.70;;;;;;;25.74;35.52;96333.72;5032460;28;20051;-62
2021/10/29 09:36:28;;;;;;;10.15;3.95;;;;;;;25.74;34.64;96325.84;5033217;28;20645;-61
2021/10/29 09:39:15;;;;;;;12.85;4.47;;;;;;;25.72;33.33;96327.69;5032417;28;20041;-63
2021/10/29 09:41:40;;;;;;;10.27;4.40;;;;;;;25.67;32.10;96328.00;5033409;28;20464;-62
2021/10/29 09:44:15;;;;;;;11.25;4.75;;;;;;;25.62;31.61;96327.44;5033989;28;20033;-63
2021/10/29 09:46:55;;;;;;;9.93;4.45;;;;;;;25.55;31.00;96319.88;5029199;28;20022;-63
2021/10/29 09:49:30;;;;;;;10.63;4.20;;;;;;;25.49;30.66;96322.88;5030081;28;20494;-63
2021/10/29 09:57:22;;;;;;;9.98;4.15;;;;;;;25.34;30.30;96334.25;5027210;28;20372;-61
2021/10/29 09:59:50;;;;;;;7.32;3.95;;;;;;;25.29;30.39;96332.75;5028103;28;20025;-62
2021/10/29 10:02:23;;;;;;;5.93;3.65;;;;;;;25.25;30.22;96328.59;5022069;28;20044;-62
2021/10/29 10:04:50;;;;;;;13.20;4.10;;;;;;;25.24;30.27;96334.78;5029290;28;20029;-62
2021/10/29 10:07:19;;;;;;;7.70;4.40;;;;;;;25.21;30.06;96332.38;5030687;28;20029;-63
2021/10/29 10:09:45;;;;;;;8.25;4.10;;;;;;;25.18;30.05;96338.59;5012889;28;20033;-63
2021/10/29 10:12:11;;;;;;;6.85;3.70;;;;;;;25.16;29.76;96326.53;5030329;28;20381;-62
2021/10/29 10:14:37;;;;;;;6.05;3.50;;;;;;;25.16;29.83;96329.16;5013148;28;20055;-62
2021/10/29 10:17:02;;;;;;;9.52;4.30;;;;;;;25.15;29.62;96335.31;5015053;28;20029;-63
2021/10/29 10:19:28;;;;;;;7.95;4.00;;;;;;;25.13;30.00;96339.84;5033483;28;20435;-61
2021/10/29 10:21:56;;;;;;;6.78;3.80;;;;;;;25.13;29.66;96335.41;5030951;28;20099;-61
2021/10/29 10:24:24;;;;;;;4.93;3.70;;;;;;;25.12;29.58;96331.09;5014201;28;20028;-63
2021/10/29 10:27:05;;;;;;;8.45;3.67;;;;;;;25.12;29.52;96325.00;5030744;28;20056;-61
2021/10/29 10:29:47;;;;;;;7.90;4.07;;;;;;;25.12;29.43;96325.88;5033902;28;20103;-63
2021/10/29 10:45:55;;;;;;;6.30;3.78;;;;;;;25.10;28.93;96305.91;5015242;28;20036;-62
2021/10/29 10:48:26;;;;;;;6.32;3.85;;;;;;;25.10;28.92;96316.41;5033936;28;20017;-62
2021/10/29 10:50:54;;;;;;;6.65;3.88;;;;;;;25.08;28.80;96310.38;5014491;28;20078;-63
2021/10/29 10:53:31;;;;;;;8.20;3.90;;;;;;;25.08;28.67;96307.75;5032029;28;20139;-63
2021/10/29 10:56:15;;;;;;;8.90;4.00;;;;;;;25.09;28.75;96306.84;5031923;28;20040;-60
2021/10/29 10:58:54;;;;;;;7.63;4.00;;;;;;;25.09;28.52;96299.81;5021291;28;20025;-61
2021/10/29 11:12:40;;;;;;;7.82;3.97;;;;;;;25.10;28.21;96269.22;5028869;28;20029;-63
2021/10/29 11:15:11;;;;;;;4.82;3.63;;;;;;;25.09;28.18;96259.66;5025898;28;20130;-62
2021/10/29 11:17:52;;;;;;;6.43;3.50;;;;;;;25.11;28.26;96265.66;5013327;28;20032;-63
2021/10/29 11:20:36;;;;;;;6.00;4.10;;;;;;;25.12;28.06;96262.09;5031105;28;20040;-63
2021/10/29 11:23:03;;;;;;;3.83;3.17;;;;;;;25.11;27.81;96255.16;5026391;28;20570;-61
2021/10/29 11:25:48;;;;;;;7.78;3.75;;;;;;;25.10;27.96;96249.09;5025403;28;20060;-63
2021/10/29 11:28:14;;;;;;;6.57;3.58;;;;;;;25.11;27.98;96237.66;5016425;28;20115;-62
2021/10/29 11:30:40;;;;;;;6.85;3.45;;;;;;;25.12;28.05;96235.88;5029910;28;20014;-64
2021/10/29 11:33:06;;;;;;;5.05;2.70;;;;;;;25.13;28.12;96232.34;5012051;28;20056;-63
2021/10/29 11:35:32;;;;;;;8.48;2.58;;;;;;;25.15;29.00;96233.06;5031562;28;20033;-65
2021/10/29 11:37:57;;;;;;;5.47;2.70;;;;;;;25.17;29.85;96231.22;5033793;28;20387;-65
2021/10/29 11:40:22;;;;;;;9.50;2.67;;;;;;;25.18;30.31;96225.03;5013793;28;20484;-65
2021/10/29 11:42:55;;;;;;;6.97;2.35;;;;;;;25.18;30.85;96220.63;5030334;28;20554;-65
2021/10/29 11:45:36;;;;;;;9.55;2.40;;;;;;;25.21;30.81;96224.84;5032024;28;20040;-64
2021/10/29 11:48:02;;;;;;;7.38;2.38;;;;;;;25.23;30.85;96228.22;5031430;28;20029;-61
2021/10/29 11:50:29;;;;;;;7.40;2.55;;;;;;;25.24;30.98;96227.28;5031489;28;20025;-62
2021/10/29 11:52:54;;;;;;;4.28;2.00;;;;;;;25.25;31.31;96215.03;5028676;28;20063;-64
2021/10/29 11:55:46;;;;;;;3.90;2.25;;;;;;;25.26;31.28;96214.94;5030365;28;20384;-64
2021/10/29 11:58:21;;;;;;;5.28;2.58;;;;;;;25.28;31.44;96204.34;5029165;28;20608;-63
2021/10/29 12:01:09;;;;;;;3.97;1.70;;;;;;;25.29;31.41;96201.63;5029851;28;20083;-65
2021/10/29 12:09:28;;;;;;;2.72;1.83;;;;;;;25.36;31.71;96196.00;5016816;28;20557;-65
2021/10/29 12:12:12;;;;;;;6.03;2.47;;;;;;;25.38;31.62;96191.50;5030039;28;20109;-66
2021/10/29 12:14:39;;;;;;;18.35;6.07;;;;;;;25.39;31.75;96195.81;5025715;28;20108;-65
2021/10/29 12:17:21;;;;;;;24.25;7.38;;;;;;;25.41;31.83;96193.94;5025583;28;20018;-65
2021/10/29 12:19:49;;;;;;;22.25;7.13;;;;;;;25.43;31.96;96181.56;5027071;28;20028;-65
2021/10/29 12:22:37;;;;;;;22.02;7.30;;;;;;;25.44;32.05;96184.09;5011357;28;20028;-64
2021/10/29 12:28:30;;;;;;;19.13;7.13;;;;;;;25.48;32.39;96174.28;5027857;28;20025;-65
2021/10/29 12:30:51;;;;;;;15.13;5.95;;;;;;;25.50;32.55;96169.78;5023421;28;20048;-64
2021/10/29 13:03:57;;;;;;;10.50;4.43;;;;;;;25.62;33.42;96141.97;5028462;28;20037;-66
2021/10/29 13:06:27;;;;;;;13.85;4.25;;;;;;;25.64;33.56;96136.63;5028791;28;20283;-65
2021/10/29 13:08:52;;;;;;;13.25;4.30;;;;;;;25.64;33.57;96139.25;5028224;28;20033;-66
2021/10/29 13:11:20;;;;;;;10.77;4.20;;;;;;;25.64;33.60;96136.63;5027246;28;20872;-66
2021/10/29 13:13:53;;;;;;;11.73;4.18;;;;;;;25.65;33.45;96133.91;5026876;28;20035;-65
2021/10/29 13:16:19;;;;;;;10.43;4.25;;;;;;;25.67;33.62;96128.56;5026263;28;20039;-66
2021/10/29 13:35:05;;;;;;;8.20;3.55;;;;;;;25.73;33.15;96119.47;4996194;28;20048;-64
2021/10/29 13:51:15;;;;;;;11.35;3.50;;;;;;;25.72;32.99;96102.88;5027017;28;20131;-65
2021/10/29 13:53:56;;;;;;;8.82;3.63;;;;;;;25.73;32.95;96098.47;5021239;28;20025;-66
2021/10/29 14:32:57;;;;;;;5.15;3.03;;;;;;;25.75;32.77;96101.81;5026559;28;20051;-64
2021/10/29 14:35:26;;;;;;;4.97;2.97;;;;;;;25.75;32.83;96102.69;5025252;28;20550;-63
2021/10/29 14:38:04;;;;;;;9.32;3.00;;;;;;;25.74;33.09;96100.97;5014741;28;20458;-64
2021/10/29 14:44:05;;;;;;;7.93;3.10;;;;;;;25.75;33.39;96102.69;5004551;28;20053;-64
2021/10/29 15:31:13;;;;;;;5.60;2.40;;;;;;;25.79;33.90;96109.41;5006801;28;20052;-64
2021/10/29 15:44:33;;;;;;;4.07;2.28;;;;;;;25.80;33.97;96116.34;5026598;28;20018;-62
2021/10/29 15:47:02;;;;;;;6.00;2.40;;;;;;;25.80;33.98;96116.34;5023842;28;20079;-64
2021/10/29 15:49:47;;;;;;;4.53;2.10;;;;;;;25.81;34.12;96115.41;5025134;28;20407;-63
2021/10/29 15:52:14;;;;;;;3.75;2.35;;;;;;;25.81;34.12;96112.78;5028630;28;20032;-64
2021/10/29 15:54:45;;;;;;;3.97;2.13;;;;;;;25.81;33.93;96107.53;5029871;28;20025;-64
2021/10/29 15:57:11;;;;;;;5.03;2.40;;;;;;;25.81;34.08;96094.41;5013940;28;20564;-64
2021/10/29 15:59:44;;;;;;;4.72;2.13;;;;;;;25.81;34.12;96097.03;5023402;28;20047;-63
2021/10/29 16:18:27;;;;;;;3.78;2.10;;;;;;;25.82;34.22;96096.06;5026562;28;20508;-62
2021/10/29 16:20:53;;;;;;;3.53;2.05;;;;;;;25.83;34.27;96092.50;5024267;28;20025;-63
2021/10/29 16:23:18;;;;;;;5.25;2.17;;;;;;;25.83;34.21;96099.56;5030211;28;20041;-64
2021/10/29 16:28:40;;;;;;;5.05;1.92;;;;;;;25.82;34.22;96093.44;5014124;28;20249;-63
2021/10/29 16:31:06;;;;;;;6.18;1.98;;;;;;;25.82;34.34;96093.44;5012938;28;20021;-63
2021/10/29 16:33:37;;;;;;;7.70;2.22;;;;;;;25.83;34.27;96095.13;5032660;28;20025;-63